sensor_id;sensor_type;location;lat;lon;timestamp;pressure;altitude;pressure_sealevel;temperature;humidity
25658;BME280;13517;59.320;18.042;2024-01-07T00:01:14;102357.06;;;-13.12;100.00
25658;BME280;13517;59.320;18.042;2024-01-07T00:03:42;102342.81;;;-13.19;100.00
25658;BME280;13517;59.320;18.042;2024-01-07T00:06:09;102399.16;;;-12.89;100.00
25658;BME280;13517;59.320;18.042;2024-01-07T00:08:35;102378.50;;;-13.01;100.00
25658;BME280;13517;59.320;18.042;2024-01-07T00:11:00;102406.88;;;-12.91;100.00
25658;BME280;13517;59.320;18.042;2024-01-07T00:13:26;102358.78;;;-13.13;100.00
25658;BME280;13517;59.320;18.042;2024-01-07T00:15:51;102406.97;;;-12.89;100.00
25658;BME280;13517;59.320;18.042;2024-01-07T00:18:19;102371.78;;;-13.13;100.00
25658;BME280;13517;59.320;18.042;2024-01-07T00:20:44;102344.50;;;-13.19;100.00
25658;BME280;13517;59.320;18.042;2024-01-07T00:23:10;102383.19;;;-12.95;100.00
25658;BME280;13517;59.320;18.042;2024-01-07T00:25:35;102372.41;;;-13.02;100.00
25658;BME280;13517;59.320;18.042;2024-01-07T00:28:00;102404.38;;;-12.89;100.00
25658;BME280;13517;59.320;18.042;2024-01-07T00:30:26;102344.75;;;-13.15;100.00
25658;BME280;13517;59.320;18.042;2024-01-07T00:32:52;102361.81;;;-13.05;100.00
25658;BME280;13517;59.320;18.042;2024-01-07T00:35:17;102415.41;;;-12.78;100.00
25658;BME280;13517;59.320;18.042;2024-01-07T00:37:43;102383.69;;;-13.01;100.00
25658;BME280;13517;59.320;18.042;2024-01-07T00:40:09;102365.88;;;-13.10;100.00
25658;BME280;13517;59.320;18.042;2024-01-07T00:42:35;102412.72;;;-12.80;100.00
25658;BME280;13517;59.320;18.042;2024-01-07T00:45:00;102380.22;;;-13.02;100.00
25658;BME280;13517;59.320;18.042;2024-01-07T00:47:26;102368.97;;;-13.16;100.00
25658;BME280;13517;59.320;18.042;2024-01-07T00:49:51;102430.38;;;-12.74;100.00
25658;BME280;13517;59.320;18.042;2024-01-07T00:52:16;102342.44;;;-13.25;100.00
25658;BME280;13517;59.320;18.042;2024-01-07T00:54:42;102384.97;;;-13.09;100.00
25658;BME280;13517;59.320;18.042;2024-01-07T00:57:07;102401.84;;;-13.03;100.00
25658;BME280;13517;59.320;18.042;2024-01-07T00:59:33;102389.28;;;-13.10;100.00
25658;BME280;13517;59.320;18.042;2024-01-07T01:01:58;102407.88;;;-13.04;100.00
25658;BME280;13517;59.320;18.042;2024-01-07T01:04:23;102430.84;;;-12.96;100.00
25658;BME280;13517;59.320;18.042;2024-01-07T01:06:49;102426.94;;;-13.03;100.00
25658;BME280;13517;59.320;18.042;2024-01-07T01:09:14;102436.81;;;-12.97;100.00
25658;BME280;13517;59.320;18.042;2024-01-07T01:11:39;102450.19;;;-12.91;100.00
25658;BME280;13517;59.320;18.042;2024-01-07T01:14:05;102419.41;;;-13.14;100.00
25658;BME280;13517;59.320;18.042;2024-01-07T01:16:30;102404.41;;;-13.18;100.00
25658;BME280;13517;59.320;18.042;2024-01-07T01:18:56;102459.09;;;-12.88;100.00
25658;BME280;13517;59.320;18.042;2024-01-07T01:21:21;102421.75;;;-13.03;100.00
25658;BME280;13517;59.320;18.042;2024-01-07T01:23:47;102389.34;;;-13.23;100.00
25658;BME280;13517;59.320;18.042;2024-01-07T01:26:12;102450.41;;;-12.88;100.00
25658;BME280;13517;59.320;18.042;2024-01-07T01:28:38;102419.25;;;-13.02;100.00
25658;BME280;13517;59.320;18.042;2024-01-07T01:31:03;102424.44;;;-13.02;100.00
25658;BME280;13517;59.320;18.042;2024-01-07T01:33:30;102473.53;;;-12.78;100.00
25658;BME280;13517;59.320;18.042;2024-01-07T01:35:55;102407.13;;;-13.16;100.00
25658;BME280;13517;59.320;18.042;2024-01-07T01:38:20;102418.88;;;-13.08;100.00
25658;BME280;13517;59.320;18.042;2024-01-07T01:40:53;102434.69;;;-12.90;100.00
25658;BME280;13517;59.320;18.042;2024-01-07T01:43:28;102473.47;;;-12.64;100.00
25658;BME280;13517;59.320;18.042;2024-01-07T01:45:55;102429.94;;;-12.82;100.00
25658;BME280;13517;59.320;18.042;2024-01-07T01:48:22;102394.84;;;-13.04;100.00
25658;BME280;13517;59.320;18.042;2024-01-07T01:50:48;102445.91;;;-12.76;100.00
25658;BME280;13517;59.320;18.042;2024-01-07T01:53:15;102477.78;;;-12.50;100.00
25658;BME280;13517;59.320;18.042;2024-01-07T01:55:42;102481.56;;;-12.45;100.00
25658;BME280;13517;59.320;18.042;2024-01-07T01:58:09;102479.94;;;-12.42;100.00
25658;BME280;13517;59.320;18.042;2024-01-07T02:00:35;102458.03;;;-12.61;100.00
25658;BME280;13517;59.320;18.042;2024-01-07T02:03:00;102452.84;;;-12.61;100.00
25658;BME280;13517;59.320;18.042;2024-01-07T02:05:26;102465.56;;;-12.51;100.00
25658;BME280;13517;59.320;18.042;2024-01-07T02:07:52;102474.72;;;-12.42;100.00
25658;BME280;13517;59.320;18.042;2024-01-07T02:10:18;102449.78;;;-12.69;100.00
25658;BME280;13517;59.320;18.042;2024-01-07T02:12:43;102486.41;;;-12.36;100.00
25658;BME280;13517;59.320;18.042;2024-01-07T02:15:09;102437.22;;;-12.61;100.00
25658;BME280;13517;59.320;18.042;2024-01-07T02:17:34;102443.41;;;-12.59;100.00
25658;BME280;13517;59.320;18.042;2024-01-07T02:20:00;102493.47;;;-12.33;100.00
25658;BME280;13517;59.320;18.042;2024-01-07T02:22:25;102473.09;;;-12.40;100.00
25658;BME280;13517;59.320;18.042;2024-01-07T02:24:51;102497.53;;;-12.38;100.00
25658;BME280;13517;59.320;18.042;2024-01-07T02:27:16;102421.94;;;-12.85;100.00
25658;BME280;13517;59.320;18.042;2024-01-07T02:29:42;102485.50;;;-12.51;100.00
25658;BME280;13517;59.320;18.042;2024-01-07T02:32:07;102471.94;;;-12.61;100.00
25658;BME280;13517;59.320;18.042;2024-01-07T02:34:32;102454.06;;;-12.69;100.00
25658;BME280;13517;59.320;18.042;2024-01-07T02:36:58;102493.31;;;-12.51;100.00
25658;BME280;13517;59.320;18.042;2024-01-07T02:39:23;102434.78;;;-12.88;100.00
25658;BME280;13517;59.320;18.042;2024-01-07T02:41:49;102460.09;;;-12.70;100.00
25658;BME280;13517;59.320;18.042;2024-01-07T02:44:15;102507.75;;;-12.41;100.00
25658;BME280;13517;59.320;18.042;2024-01-07T02:46:40;102459.56;;;-12.65;100.00
25658;BME280;13517;59.320;18.042;2024-01-07T02:49:06;102474.66;;;-12.59;100.00
25658;BME280;13517;59.320;18.042;2024-01-07T02:51:31;102514.06;;;-12.23;100.00
25658;BME280;13517;59.320;18.042;2024-01-07T02:53:56;102519.44;;;-12.20;100.00
25658;BME280;13517;59.320;18.042;2024-01-07T02:56:22;102525.66;;;-12.18;100.00
25658;BME280;13517;59.320;18.042;2024-01-07T02:58:47;102519.72;;;-12.15;100.00
25658;BME280;13517;59.320;18.042;2024-01-07T03:01:12;102510.63;;;-12.22;100.00
25658;BME280;13517;59.320;18.042;2024-01-07T03:03:38;102521.50;;;-12.14;100.00
25658;BME280;13517;59.320;18.042;2024-01-07T03:06:04;102483.97;;;-12.48;100.00
25658;BME280;13517;59.320;18.042;2024-01-07T03:08:29;102531.03;;;-12.14;100.00
25658;BME280;13517;59.320;18.042;2024-01-07T03:10:55;102493.22;;;-12.38;100.00
25658;BME280;13517;59.320;18.042;2024-01-07T03:13:20;102509.66;;;-12.24;100.00
25658;BME280;13517;59.320;18.042;2024-01-07T03:15:45;102467.81;;;-12.57;100.00
25658;BME280;13517;59.320;18.042;2024-01-07T03:18:11;102504.09;;;-12.30;100.00
25658;BME280;13517;59.320;18.042;2024-01-07T03:20:36;102555.00;;;-12.05;100.00
25658;BME280;13517;59.320;18.042;2024-01-07T03:23:02;102514.97;;;-12.22;100.00
25658;BME280;13517;59.320;18.042;2024-01-07T03:25:27;102545.81;;;-11.98;100.00
25658;BME280;13517;59.320;18.042;2024-01-07T03:27:53;102503.63;;;-12.23;100.00
25658;BME280;13517;59.320;18.042;2024-01-07T03:30:18;102552.09;;;-11.95;100.00
25658;BME280;13517;59.320;18.042;2024-01-07T03:32:43;102556.34;;;-11.97;100.00
25658;BME280;13517;59.320;18.042;2024-01-07T03:35:09;102523.41;;;-12.11;100.00
25658;BME280;13517;59.320;18.042;2024-01-07T03:37:35;102550.66;;;-11.90;100.00
25658;BME280;13517;59.320;18.042;2024-01-07T03:40:00;102561.44;;;-11.83;100.00
25658;BME280;13517;59.320;18.042;2024-01-07T03:42:26;102531.25;;;-11.95;100.00
25658;BME280;13517;59.320;18.042;2024-01-07T03:44:51;102545.44;;;-11.90;100.00
25658;BME280;13517;59.320;18.042;2024-01-07T03:47:17;102525.94;;;-11.96;100.00
25658;BME280;13517;59.320;18.042;2024-01-07T03:49:42;102536.97;;;-11.85;100.00
25658;BME280;13517;59.320;18.042;2024-01-07T03:52:08;102573.56;;;-11.69;100.00
25658;BME280;13517;59.320;18.042;2024-01-07T03:54:33;102553.16;;;-11.76;100.00
25658;BME280;13517;59.320;18.042;2024-01-07T03:56:59;102558.19;;;-11.79;100.00
25658;BME280;13517;59.320;18.042;2024-01-07T03:59:24;102529.25;;;-11.99;100.00
25658;BME280;13517;59.320;18.042;2024-01-07T04:01:52;102561.25;;;-11.86;100.00
25658;BME280;13517;59.320;18.042;2024-01-07T04:04:18;102553.44;;;-12.01;100.00
25658;BME280;13517;59.320;18.042;2024-01-07T04:06:43;102526.47;;;-12.19;100.00
25658;BME280;13517;59.320;18.042;2024-01-07T04:09:09;102576.13;;;-12.00;100.00
25658;BME280;13517;59.320;18.042;2024-01-07T04:11:41;102580.56;;;-11.98;100.00
25658;BME280;13517;59.320;18.042;2024-01-07T04:14:07;102544.88;;;-12.15;100.00
25658;BME280;13517;59.320;18.042;2024-01-07T04:16:32;102579.59;;;-12.00;100.00
25658;BME280;13517;59.320;18.042;2024-01-07T04:18:58;102543.91;;;-12.18;100.00
25658;BME280;13517;59.320;18.042;2024-01-07T04:21:23;102584.44;;;-11.91;100.00
25658;BME280;13517;59.320;18.042;2024-01-07T04:23:48;102549.09;;;-12.18;100.00
25658;BME280;13517;59.320;18.042;2024-01-07T04:26:14;102586.94;;;-12.09;100.00
25658;BME280;13517;59.320;18.042;2024-01-07T04:28:42;102535.59;;;-12.40;100.00
25658;BME280;13517;59.320;18.042;2024-01-07T04:31:08;102594.13;;;-12.20;100.00
25658;BME280;13517;59.320;18.042;2024-01-07T04:33:34;102575.84;;;-12.35;100.00
25658;BME280;13517;59.320;18.042;2024-01-07T04:35:59;102598.31;;;-12.37;100.00
25658;BME280;13517;59.320;18.042;2024-01-07T04:38:26;102540.41;;;-12.77;100.00
25658;BME280;13517;59.320;18.042;2024-01-07T04:40:51;102570.41;;;-12.68;100.00
25658;BME280;13517;59.320;18.042;2024-01-07T04:43:18;102596.13;;;-12.60;100.00
25658;BME280;13517;59.320;18.042;2024-01-07T04:45:43;102600.34;;;-12.62;100.00
25658;BME280;13517;59.320;18.042;2024-01-07T04:48:09;102560.69;;;-12.86;100.00
25658;BME280;13517;59.320;18.042;2024-01-07T04:50:34;102554.56;;;-12.87;100.00
25658;BME280;13517;59.320;18.042;2024-01-07T04:52:59;102609.06;;;-12.61;100.00
25658;BME280;13517;59.320;18.042;2024-01-07T04:55:25;102549.28;;;-12.88;100.00
25658;BME280;13517;59.320;18.042;2024-01-07T04:57:50;102533.19;;;-12.96;100.00
25658;BME280;13517;59.320;18.042;2024-01-07T05:00:16;102571.84;;;-12.74;100.00
25658;BME280;13517;59.320;18.042;2024-01-07T05:02:41;102573.66;;;-12.73;100.00
25658;BME280;13517;59.320;18.042;2024-01-07T05:05:10;102589.44;;;-12.69;100.00
25658;BME280;13517;59.320;18.042;2024-01-07T05:07:35;102612.66;;;-12.59;100.00
25658;BME280;13517;59.320;18.042;2024-01-07T05:10:01;102575.16;;;-12.76;100.00
25658;BME280;13517;59.320;18.042;2024-01-07T05:12:26;102616.94;;;-12.60;100.00
25658;BME280;13517;59.320;18.042;2024-01-07T05:14:52;102611.41;;;-12.51;100.00
25658;BME280;13517;59.320;18.042;2024-01-07T05:17:17;102602.50;;;-12.54;100.00
25658;BME280;13517;59.320;18.042;2024-01-07T05:19:43;102591.44;;;-12.65;100.00
25658;BME280;13517;59.320;18.042;2024-01-07T05:22:09;102624.31;;;-12.52;100.00
25658;BME280;13517;59.320;18.042;2024-01-07T05:24:37;102619.47;;;-12.61;100.00
25658;BME280;13517;59.320;18.042;2024-01-07T05:27:04;102622.53;;;-12.53;100.00
25658;BME280;13517;59.320;18.042;2024-01-07T05:29:29;102625.94;;;-12.54;100.00
25658;BME280;13517;59.320;18.042;2024-01-07T05:31:55;102593.13;;;-12.81;100.00
25658;BME280;13517;59.320;18.042;2024-01-07T05:34:20;102583.50;;;-12.82;100.00
25658;BME280;13517;59.320;18.042;2024-01-07T05:36:45;102587.00;;;-12.81;100.00
25658;BME280;13517;59.320;18.042;2024-01-07T05:39:11;102586.19;;;-12.80;100.00
25658;BME280;13517;59.320;18.042;2024-01-07T05:41:37;102557.59;;;-12.94;100.00
25658;BME280;13517;59.320;18.042;2024-01-07T05:44:03;102596.59;;;-12.80;100.00
25658;BME280;13517;59.320;18.042;2024-01-07T05:46:29;102628.44;;;-12.56;100.00
25658;BME280;13517;59.320;18.042;2024-01-07T05:48:54;102628.06;;;-12.62;100.00
25658;BME280;13517;59.320;18.042;2024-01-07T05:51:19;102633.47;;;-12.59;100.00
25658;BME280;13517;59.320;18.042;2024-01-07T05:53:45;102649.88;;;-12.47;100.00
25658;BME280;13517;59.320;18.042;2024-01-07T05:56:11;102648.41;;;-12.41;100.00
25658;BME280;13517;59.320;18.042;2024-01-07T05:58:37;102631.53;;;-12.48;100.00
25658;BME280;13517;59.320;18.042;2024-01-07T06:01:02;102615.25;;;-12.59;100.00
25658;BME280;13517;59.320;18.042;2024-01-07T06:03:28;102582.28;;;-12.74;100.00
25658;BME280;13517;59.320;18.042;2024-01-07T06:05:53;102592.69;;;-12.74;100.00
25658;BME280;13517;59.320;18.042;2024-01-07T06:08:18;102626.13;;;-12.51;100.00
25658;BME280;13517;59.320;18.042;2024-01-07T06:10:44;102648.78;;;-12.35;100.00
25658;BME280;13517;59.320;18.042;2024-01-07T06:13:10;102665.00;;;-12.26;100.00
25658;BME280;13517;59.320;18.042;2024-01-07T06:15:35;102666.78;;;-12.25;100.00
25658;BME280;13517;59.320;18.042;2024-01-07T06:18:01;102664.34;;;-12.22;100.00
25658;BME280;13517;59.320;18.042;2024-01-07T06:20:26;102655.56;;;-12.24;100.00
25658;BME280;13517;59.320;18.042;2024-01-07T06:22:51;102635.31;;;-12.28;100.00
25658;BME280;13517;59.320;18.042;2024-01-07T06:25:17;102669.13;;;-12.14;100.00
25658;BME280;13517;59.320;18.042;2024-01-07T06:27:42;102667.34;;;-12.15;100.00
25658;BME280;13517;59.320;18.042;2024-01-07T06:30:08;102629.56;;;-12.37;100.00
25658;BME280;13517;59.320;18.042;2024-01-07T06:32:34;102681.72;;;-12.07;100.00
25658;BME280;13517;59.320;18.042;2024-01-07T06:35:01;102671.94;;;-12.11;100.00
25658;BME280;13517;59.320;18.042;2024-01-07T06:37:26;102647.03;;;-12.21;100.00
25658;BME280;13517;59.320;18.042;2024-01-07T06:39:54;102652.06;;;-12.09;100.00
25658;BME280;13517;59.320;18.042;2024-01-07T06:42:20;102687.09;;;-11.89;100.00
25658;BME280;13517;59.320;18.042;2024-01-07T06:44:45;102670.00;;;-11.99;100.00
25658;BME280;13517;59.320;18.042;2024-01-07T06:47:10;102699.41;;;-11.86;100.00
25658;BME280;13517;59.320;18.042;2024-01-07T06:49:36;102702.63;;;-11.91;100.00
25658;BME280;13517;59.320;18.042;2024-01-07T06:52:01;102696.97;;;-11.98;100.00
25658;BME280;13517;59.320;18.042;2024-01-07T06:54:27;102714.06;;;-11.88;100.00
25658;BME280;13517;59.320;18.042;2024-01-07T06:56:52;102655.94;;;-12.18;100.00
25658;BME280;13517;59.320;18.042;2024-01-07T06:59:17;102715.88;;;-11.87;100.00
25658;BME280;13517;59.320;18.042;2024-01-07T07:01:43;102704.00;;;-11.97;100.00
25658;BME280;13517;59.320;18.042;2024-01-07T07:04:08;102672.28;;;-12.20;100.00
25658;BME280;13517;59.320;18.042;2024-01-07T07:06:33;102711.19;;;-12.08;100.00
25658;BME280;13517;59.320;18.042;2024-01-07T07:09:01;102679.44;;;-12.31;100.00
25658;BME280;13517;59.320;18.042;2024-01-07T07:11:26;102727.81;;;-12.06;100.00
25658;BME280;13517;59.320;18.042;2024-01-07T07:13:51;102745.78;;;-12.11;100.00
25658;BME280;13517;59.320;18.042;2024-01-07T07:16:17;102681.88;;;-12.48;100.00
25658;BME280;13517;59.320;18.042;2024-01-07T07:18:42;102691.72;;;-12.43;100.00
25658;BME280;13517;59.320;18.042;2024-01-07T07:21:08;102702.94;;;-12.45;100.00
25658;BME280;13517;59.320;18.042;2024-01-07T07:23:33;102719.38;;;-12.46;100.00
25658;BME280;13517;59.320;18.042;2024-01-07T07:25:58;102727.19;;;-12.46;100.00
25658;BME280;13517;59.320;18.042;2024-01-07T07:28:24;102749.41;;;-12.37;100.00
25658;BME280;13517;59.320;18.042;2024-01-07T07:30:49;102778.03;;;-12.37;100.00
25658;BME280;13517;59.320;18.042;2024-01-07T07:33:15;102760.41;;;-12.41;100.00
25658;BME280;13517;59.320;18.042;2024-01-07T07:35:40;102695.22;;;-12.85;100.00
25658;BME280;13517;59.320;18.042;2024-01-07T07:38:07;102761.47;;;-12.53;100.00
25658;BME280;13517;59.320;18.042;2024-01-07T07:40:32;102758.66;;;-12.56;100.00
25658;BME280;13517;59.320;18.042;2024-01-07T07:42:58;102700.16;;;-13.03;100.00
25658;BME280;13517;59.320;18.042;2024-01-07T07:45:23;102709.69;;;-13.04;100.00
25658;BME280;13517;59.320;18.042;2024-01-07T07:47:49;102701.06;;;-13.16;100.00
25658;BME280;13517;59.320;18.042;2024-01-07T07:50:14;102755.09;;;-12.85;100.00
25658;BME280;13517;59.320;18.042;2024-01-07T07:52:42;102742.09;;;-12.98;100.00
25658;BME280;13517;59.320;18.042;2024-01-07T07:55:09;102739.41;;;-13.00;100.00
25658;BME280;13517;59.320;18.042;2024-01-07T07:57:34;102766.13;;;-12.89;100.00
25658;BME280;13517;59.320;18.042;2024-01-07T08:00:00;102763.31;;;-12.92;100.00
25658;BME280;13517;59.320;18.042;2024-01-07T08:02:26;102674.00;;;-13.47;100.00
25658;BME280;13517;59.320;18.042;2024-01-07T08:04:51;102751.31;;;-13.04;100.00
25658;BME280;13517;59.320;18.042;2024-01-07T08:07:17;102782.72;;;-12.87;100.00
25658;BME280;13517;59.320;18.042;2024-01-07T08:09:43;102782.50;;;-12.90;100.00
25658;BME280;13517;59.320;18.042;2024-01-07T08:12:08;102760.69;;;-13.06;100.00
25658;BME280;13517;59.320;18.042;2024-01-07T08:14:34;102756.41;;;-13.05;100.00
25658;BME280;13517;59.320;18.042;2024-01-07T08:16:59;102803.56;;;-12.87;100.00
25658;BME280;13517;59.320;18.042;2024-01-07T08:19:25;102793.94;;;-12.88;100.00
25658;BME280;13517;59.320;18.042;2024-01-07T08:21:50;102771.31;;;-13.03;100.00
25658;BME280;13517;59.320;18.042;2024-01-07T08:24:16;102754.41;;;-13.09;100.00
25658;BME280;13517;59.320;18.042;2024-01-07T08:26:41;102734.09;;;-13.15;100.00
25658;BME280;13517;59.320;18.042;2024-01-07T08:29:07;102784.00;;;-12.94;100.00
25658;BME280;13517;59.320;18.042;2024-01-07T08:31:32;102768.44;;;-13.07;100.00
25658;BME280;13517;59.320;18.042;2024-01-07T08:33:58;102806.25;;;-12.86;100.00
25658;BME280;13517;59.320;18.042;2024-01-07T08:36:23;102814.56;;;-12.78;100.00
25658;BME280;13517;59.320;18.042;2024-01-07T08:38:49;102785.44;;;-12.86;100.00
25658;BME280;13517;59.320;18.042;2024-01-07T08:41:18;102809.94;;;-12.68;100.00
25658;BME280;13517;59.320;18.042;2024-01-07T08:43:43;102776.41;;;-12.91;100.00
25658;BME280;13517;59.320;18.042;2024-01-07T08:46:10;102815.88;;;-12.71;100.00
25658;BME280;13517;59.320;18.042;2024-01-07T08:48:36;102806.44;;;-12.82;100.00
25658;BME280;13517;59.320;18.042;2024-01-07T08:51:01;102756.53;;;-13.04;100.00
25658;BME280;13517;59.320;18.042;2024-01-07T08:53:26;102787.03;;;-12.88;100.00
25658;BME280;13517;59.320;18.042;2024-01-07T08:55:52;102801.25;;;-12.69;100.00
25658;BME280;13517;59.320;18.042;2024-01-07T08:58:17;102785.63;;;-12.96;100.00
25658;BME280;13517;59.320;18.042;2024-01-07T09:00:43;102800.84;;;-12.89;100.00
25658;BME280;13517;59.320;18.042;2024-01-07T09:03:09;102825.88;;;-12.77;100.00
25658;BME280;13517;59.320;18.042;2024-01-07T09:05:35;102843.47;;;-12.73;100.00
25658;BME280;13517;59.320;18.042;2024-01-07T09:08:00;102825.47;;;-12.83;100.00
25658;BME280;13517;59.320;18.042;2024-01-07T09:10:26;102792.84;;;-13.05;100.00
25658;BME280;13517;59.320;18.042;2024-01-07T09:12:52;102848.38;;;-12.78;100.00
25658;BME280;13517;59.320;18.042;2024-01-07T09:15:19;102836.38;;;-12.76;100.00
25658;BME280;13517;59.320;18.042;2024-01-07T09:17:45;102821.56;;;-12.90;100.00
25658;BME280;13517;59.320;18.042;2024-01-07T09:20:11;102800.13;;;-13.13;100.00
25658;BME280;13517;59.320;18.042;2024-01-07T09:22:37;102792.53;;;-13.23;100.00
25658;BME280;13517;59.320;18.042;2024-01-07T09:25:03;102852.09;;;-12.88;100.00
25658;BME280;13517;59.320;18.042;2024-01-07T09:27:29;102856.41;;;-12.88;100.00
25658;BME280;13517;59.320;18.042;2024-01-07T09:29:55;102822.84;;;-13.10;100.00
25658;BME280;13517;59.320;18.042;2024-01-07T09:32:20;102824.16;;;-13.17;100.00
25658;BME280;13517;59.320;18.042;2024-01-07T09:34:46;102827.53;;;-13.18;100.00
25658;BME280;13517;59.320;18.042;2024-01-07T09:37:11;102826.13;;;-13.27;100.00
25658;BME280;13517;59.320;18.042;2024-01-07T09:39:40;102819.91;;;-13.29;100.00
25658;BME280;13517;59.320;18.042;2024-01-07T09:42:17;102855.06;;;-13.08;100.00
25658;BME280;13517;59.320;18.042;2024-01-07T09:44:43;102865.97;;;-13.14;100.00
25658;BME280;13517;59.320;18.042;2024-01-07T09:47:11;102852.03;;;-13.28;100.00
25658;BME280;13517;59.320;18.042;2024-01-07T09:49:37;102814.09;;;-13.51;100.00
25658;BME280;13517;59.320;18.042;2024-01-07T09:52:04;102874.66;;;-13.27;100.00
25658;BME280;13517;59.320;18.042;2024-01-07T09:54:30;102868.53;;;-13.28;100.00
25658;BME280;13517;59.320;18.042;2024-01-07T09:57:00;102873.97;;;-13.24;100.00
25658;BME280;13517;59.320;18.042;2024-01-07T09:59:30;102836.59;;;-13.52;100.00
25658;BME280;13517;59.320;18.042;2024-01-07T10:01:56;102858.41;;;-13.36;100.00
25658;BME280;13517;59.320;18.042;2024-01-07T10:04:23;102860.50;;;-13.44;100.00
25658;BME280;13517;59.320;18.042;2024-01-07T10:06:48;102860.50;;;-13.44;100.00
25658;BME280;13517;59.320;18.042;2024-01-07T10:09:16;102835.47;;;-13.56;100.00
25658;BME280;13517;59.320;18.042;2024-01-07T10:11:43;102855.41;;;-13.43;100.00
25658;BME280;13517;59.320;18.042;2024-01-07T10:14:09;102851.63;;;-13.48;100.00
25658;BME280;13517;59.320;18.042;2024-01-07T10:16:34;102830.53;;;-13.64;100.00
25658;BME280;13517;59.320;18.042;2024-01-07T10:19:00;102866.09;;;-13.51;100.00
25658;BME280;13517;59.320;18.042;2024-01-07T10:21:25;102857.25;;;-13.67;100.00
25658;BME280;13517;59.320;18.042;2024-01-07T10:23:51;102892.59;;;-13.44;100.00
25658;BME280;13517;59.320;18.042;2024-01-07T10:26:32;102854.28;;;-13.60;100.00
25658;BME280;13517;59.320;18.042;2024-01-07T10:28:57;102862.28;;;-13.57;100.00
25658;BME280;13517;59.320;18.042;2024-01-07T10:31:23;102785.53;;;-14.02;100.00
25658;BME280;13517;59.320;18.042;2024-01-07T10:33:49;102878.19;;;-13.52;100.00
25658;BME280;13517;59.320;18.042;2024-01-07T10:36:15;102842.53;;;-13.66;100.00
25658;BME280;13517;59.320;18.042;2024-01-07T10:38:44;102829.84;;;-13.62;100.00
25658;BME280;13517;59.320;18.042;2024-01-07T10:41:11;102815.13;;;-13.75;100.00
25658;BME280;13517;59.320;18.042;2024-01-07T10:43:38;102878.44;;;-13.49;100.00
25658;BME280;13517;59.320;18.042;2024-01-07T10:46:04;102842.66;;;-13.65;100.00
25658;BME280;13517;59.320;18.042;2024-01-07T10:48:31;102852.44;;;-13.61;100.00
25658;BME280;13517;59.320;18.042;2024-01-07T10:51:00;102857.56;;;-13.62;100.00
25658;BME280;13517;59.320;18.042;2024-01-07T10:53:28;102882.94;;;-13.46;100.00
25658;BME280;13517;59.320;18.042;2024-01-07T10:56:00;102849.47;;;-13.67;100.00
25658;BME280;13517;59.320;18.042;2024-01-07T10:58:32;102860.75;;;-13.66;100.00
25658;BME280;13517;59.320;18.042;2024-01-07T11:00:59;102882.13;;;-13.45;100.00
25658;BME280;13517;59.320;18.042;2024-01-07T11:03:36;102906.38;;;-13.19;100.00
25658;BME280;13517;59.320;18.042;2024-01-07T11:09:36;102899.97;;;-13.11;100.00
25658;BME280;13517;59.320;18.042;2024-01-07T11:12:03;102894.41;;;-13.17;100.00
25658;BME280;13517;59.320;18.042;2024-01-07T11:14:40;102907.13;;;-12.95;100.00
25658;BME280;13517;59.320;18.042;2024-01-07T11:17:10;102834.75;;;-13.14;100.00
25658;BME280;13517;59.320;18.042;2024-01-07T11:19:36;102856.81;;;-12.95;100.00
25658;BME280;13517;59.320;18.042;2024-01-07T11:22:23;102904.69;;;-12.66;100.00
25658;BME280;13517;59.320;18.042;2024-01-07T11:24:51;102881.66;;;-12.74;100.00
25658;BME280;13517;59.320;18.042;2024-01-07T11:27:17;102901.69;;;-12.59;100.00
25658;BME280;13517;59.320;18.042;2024-01-07T11:29:42;102886.94;;;-12.72;100.00
25658;BME280;13517;59.320;18.042;2024-01-07T11:32:12;102911.88;;;-12.62;100.00
25658;BME280;13517;59.320;18.042;2024-01-07T11:34:42;102908.88;;;-12.41;100.00
25658;BME280;13517;59.320;18.042;2024-01-07T11:37:12;102901.97;;;-12.27;100.00
25658;BME280;13517;59.320;18.042;2024-01-07T11:39:48;102900.06;;;-12.16;100.00
25658;BME280;13517;59.320;18.042;2024-01-07T11:42:15;102906.09;;;-12.02;100.00
25658;BME280;13517;59.320;18.042;2024-01-07T11:44:52;102855.88;;;-12.28;100.00
25658;BME280;13517;59.320;18.042;2024-01-07T11:47:19;102897.78;;;-11.97;100.00
25658;BME280;13517;59.320;18.042;2024-01-07T11:49:45;102871.97;;;-12.07;100.00
25658;BME280;13517;59.320;18.042;2024-01-07T11:52:11;102904.28;;;-11.90;100.00
25658;BME280;13517;59.320;18.042;2024-01-07T11:54:39;102885.63;;;-12.11;100.00
25658;BME280;13517;59.320;18.042;2024-01-07T11:57:06;102859.59;;;-12.25;100.00
25658;BME280;13517;59.320;18.042;2024-01-07T11:59:32;102904.00;;;-11.95;100.00
25658;BME280;13517;59.320;18.042;2024-01-07T12:01:59;102910.97;;;-11.80;100.00
25658;BME280;13517;59.320;18.042;2024-01-07T12:04:25;102896.06;;;-11.96;100.00
25658;BME280;13517;59.320;18.042;2024-01-07T12:06:51;102861.78;;;-12.18;100.00
25658;BME280;13517;59.320;18.042;2024-01-07T12:09:17;102923.91;;;-11.82;100.00
25658;BME280;13517;59.320;18.042;2024-01-07T12:11:43;102898.16;;;-11.91;100.00
25658;BME280;13517;59.320;18.042;2024-01-07T12:14:09;102836.59;;;-12.17;100.00
25658;BME280;13517;59.320;18.042;2024-01-07T12:16:36;102928.50;;;-11.64;100.00
25658;BME280;13517;59.320;18.042;2024-01-07T12:19:01;102927.56;;;-11.65;100.00